Time;durP1;ratioP1;P1;durP2;ratioP2;P2;SDS_P1;SDS_P2;PMS_P1;PMS_P2;Temp;Humidity;BMP_temperature;BMP_pressure;BME280_temperature;BME280_humidity;BME280_pressure;Samples;Min_cycle;Max_cycle;Signal;HPM_P1;HPM_P2
2023/03/21 00:00:47;;;;;;;;;;;12.40;99.90;;;;;;6097811;23;19905;-82
2023/03/21 00:03:13;;;;;;;;;;;12.40;99.90;;;;;;6096900;23;20298;-82
2023/03/21 00:05:42;;;;;;;;;;;12.40;99.90;;;;;;6097788;23;19905;-81
2023/03/21 00:08:07;;;;;;;;;;;12.40;99.90;;;;;;6098642;23;19958;-82
2023/03/21 00:10:33;;;;;;;;;;;12.30;99.90;;;;;;6097190;23;20301;-81
2023/03/21 00:12:58;;;;;;;;;;;12.30;99.90;;;;;;6122468;23;19909;-81
2023/03/21 00:15:26;;;;;;;;;;;12.30;99.90;;;;;;6123088;23;19931;-81
2023/03/21 00:18:02;;;;;;;;;;;12.30;99.90;;;;;;6097531;23;19989;-81
2023/03/21 00:20:33;;;;;;;;;;;12.30;99.90;;;;;;6123021;23;19911;-82
2023/03/21 00:23:02;;;;;;;;;;;12.30;99.90;;;;;;6097681;23;19905;-81
2023/03/21 00:25:27;;;;;;;;;;;12.20;99.90;;;;;;6098184;23;19905;-81
2023/03/21 00:27:53;;;;;;;;;;;12.20;99.90;;;;;;6097021;23;19912;-81
2023/03/21 00:30:18;;;;;;;;;;;12.20;99.90;;;;;;6097397;23;20176;-82
2023/03/21 00:32:45;;;;;;;;;;;12.20;99.90;;;;;;6096732;23;19913;-81
2023/03/21 00:35:11;;;;;;;;;;;12.20;99.90;;;;;;6122807;23;20353;-81
2023/03/21 00:37:36;;;;;;;;;;;12.20;99.90;;;;;;6097015;23;19906;-81
2023/03/21 00:40:05;;;;;;;;;;;12.20;99.90;;;;;;6124908;23;19912;-81
2023/03/21 00:42:31;;;;;;;;;;;12.10;99.90;;;;;;6098469;23;20332;-81
2023/03/21 00:44:56;;;;;;;;;;;12.10;99.90;;;;;;6125406;23;19920;-81
2023/03/21 00:47:22;;;;;;;;;;;12.10;99.90;;;;;;6099412;23;19905;-82
2023/03/21 00:49:47;;;;;;;;;;;12.10;99.90;;;;;;6122549;23;19944;-81
2023/03/21 00:52:13;;;;;;;;;;;12.10;99.90;;;;;;6098247;23;19913;-81
2023/03/21 00:54:38;;;;;;;;;;;12.10;99.90;;;;;;6097302;23;19905;-81
2023/03/21 00:57:04;;;;;;;;;;;12.10;99.90;;;;;;6098061;23;19927;-82
2023/03/21 00:59:29;;;;;;;;;;;12.00;99.90;;;;;;6121588;23;19905;-80
2023/03/21 01:01:55;;;;;;;;;;;12.00;99.90;;;;;;6122617;23;19940;-81
2023/03/21 01:04:25;;;;;;;;;;;12.00;99.90;;;;;;6123997;23;19905;-81
2023/03/21 01:06:51;;;;;;;;;;;12.00;99.90;;;;;;6123304;23;19909;-81
2023/03/21 01:09:18;;;;;;;;;;;12.00;99.90;;;;;;6123479;23;19912;-81
2023/03/21 01:11:44;;;;;;;;;;;12.00;99.90;;;;;;6096841;23;19909;-81
2023/03/21 01:14:10;;;;;;;;;;;12.00;99.90;;;;;;6123314;23;19911;-81
2023/03/21 01:16:35;;;;;;;;;;;12.10;99.90;;;;;;6096992;23;20292;-81
2023/03/21 01:19:01;;;;;;;;;;;12.10;99.90;;;;;;6097936;23;19905;-81
2023/03/21 01:21:27;;;;;;;;;;;12.10;99.90;;;;;;6123201;23;20349;-81
2023/03/21 01:23:52;;;;;;;;;;;12.10;99.90;;;;;;6123622;23;19936;-82
2023/03/21 01:26:18;;;;;;;;;;;12.10;99.90;;;;;;6097868;23;20327;-81
2023/03/21 01:28:44;;;;;;;;;;;12.10;99.90;;;;;;6097642;23;19912;-81
2023/03/21 01:31:13;;;;;;;;;;;12.10;99.90;;;;;;6097488;23;19916;-81
2023/03/21 01:33:39;;;;;;;;;;;12.10;99.90;;;;;;6122803;23;19912;-81
2023/03/21 01:36:05;;;;;;;;;;;12.10;99.90;;;;;;6122808;23;19905;-81
2023/03/21 01:38:31;;;;;;;;;;;12.10;99.90;;;;;;6097319;23;19905;-81
2023/03/21 01:40:58;;;;;;;;;;;12.00;99.90;;;;;;6123024;23;19909;-81
2023/03/21 01:43:34;;;;;;;;;;;12.00;99.90;;;;;;6121159;23;19968;-81
2023/03/21 01:46:05;;;;;;;;;;;12.00;99.90;;;;;;6124400;23;19987;-81
2023/03/21 01:48:31;;;;;;;;;;;12.00;99.90;;;;;;6097464;23;19908;-80
2023/03/21 01:50:57;;;;;;;;;;;12.00;99.90;;;;;;6122510;23;19905;-81
2023/03/21 01:53:28;;;;;;;;;;;11.90;99.90;;;;;;6096287;23;20359;-81
2023/03/21 01:56:00;;;;;;;;;;;11.90;99.90;;;;;;6096641;23;19966;-81
2023/03/21 01:58:26;;;;;;;;;;;11.90;99.90;;;;;;6105225;23;19931;-81
2023/03/21 02:00:54;;;;;;;;;;;12.00;99.90;;;;;;6100848;23;19905;-81
2023/03/21 02:03:19;;;;;;;;;;;12.00;99.90;;;;;;6126326;23;20318;-81
2023/03/21 02:05:48;;;;;;;;;;;12.00;99.90;;;;;;6123927;23;19989;-81
2023/03/21 02:08:13;;;;;;;;;;;12.00;99.90;;;;;;6124536;23;19905;-81
2023/03/21 02:10:41;;;;;;;;;;;12.00;99.90;;;;;;6098235;23;19912;-82
2023/03/21 02:13:10;;;;;;;;;;;12.00;99.90;;;;;;6121558;23;19915;-81
2023/03/21 02:15:40;;;;;;;;;;;11.90;99.90;;;;;;6124031;23;19909;-81
2023/03/21 02:18:25;;;;;;;;;;;11.90;99.90;;;;;;6122707;23;19905;-81
2023/03/21 02:21:06;;;;;;;;;;;11.90;99.90;;;;;;6124463;23;19916;-80
2023/03/21 02:23:35;;;;;;;;;;;11.90;99.90;;;;;;6098629;23;19905;-81
2023/03/21 02:26:00;;;;;;;;;;;11.90;99.90;;;;;;6098090;23;20394;-81
2023/03/21 02:28:32;;;;;;;;;;;11.90;99.90;;;;;;6124623;23;20322;-81
2023/03/21 02:31:09;;;;;;;;;;;11.90;99.90;;;;;;6098296;23;20315;-81
2023/03/21 02:33:46;;;;;;;;;;;12.00;99.90;;;;;;6123821;23;20254;-81
2023/03/21 02:36:15;;;;;;;;;;;12.00;99.90;;;;;;6098196;23;19905;-81
2023/03/21 02:39:03;;;;;;;;;;;12.00;99.90;;;;;;6124071;23;19908;-81
2023/03/21 02:41:36;;;;;;;;;;;12.00;99.90;;;;;;6097592;23;19905;-81
2023/03/21 02:44:11;;;;;;;;;;;12.00;99.90;;;;;;6097264;22;19928;-86
2023/03/21 02:46:40;;;;;;;;;;;12.00;99.90;;;;;;6095788;23;19991;-87
2023/03/21 02:49:09;;;;;;;;;;;12.00;99.90;;;;;;6095888;23;20252;-87
2023/03/21 02:51:36;;;;;;;;;;;12.00;99.90;;;;;;6095529;23;19951;-87
2023/03/21 02:54:08;;;;;;;;;;;12.00;99.90;;;;;;6096142;23;19936;-87
2023/03/21 02:56:35;;;;;;;;;;;12.00;99.90;;;;;;6095773;23;20238;-87
2023/03/21 02:59:02;;;;;;;;;;;11.90;99.90;;;;;;6095430;23;19994;-87
2023/03/21 03:01:28;;;;;;;;;;;12.00;99.90;;;;;;6121343;23;19916;-87
2023/03/21 03:03:56;;;;;;;;;;;12.00;99.90;;;;;;6095560;23;19905;-87
2023/03/21 03:06:24;;;;;;;;;;;12.00;99.90;;;;;;6095865;23;19959;-87
2023/03/21 03:09:08;;;;;;;;;;;12.00;99.90;;;;;;6095637;23;19905;-87
2023/03/21 03:11:39;;;;;;;;;;;12.00;99.90;;;;;;6094995;23;19909;-87
2023/03/21 03:14:17;;;;;;;;;;;12.00;99.90;;;;;;6095449;23;20327;-87
2023/03/21 03:16:49;;;;;;;;;;;12.00;99.90;;;;;;6095804;23;19905;-87
2023/03/21 03:19:20;;;;;;;;;;;11.90;99.90;;;;;;6095605;23;20223;-87
2023/03/21 03:21:48;;;;;;;;;;;11.80;99.90;;;;;;6095444;23;19905;-87
2023/03/21 03:24:21;;;;;;;;;;;11.80;99.90;;;;;;6095464;23;19966;-87
2023/03/21 03:26:51;;;;;;;;;;;11.70;99.90;;;;;;6095782;23;19935;-87
2023/03/21 03:29:17;;;;;;;;;;;11.60;99.90;;;;;;6095448;23;19988;-87
2023/03/21 03:31:52;;;;;;;;;;;11.60;99.90;;;;;;6094885;23;19996;-87
2023/03/21 03:34:19;;;;;;;;;;;11.60;99.90;;;;;;6119580;23;19943;-87
2023/03/21 03:36:50;;;;;;;;;;;11.60;99.90;;;;;;6095423;23;20014;-87
2023/03/21 03:39:16;;;;;;;;;;;11.60;99.90;;;;;;6119807;23;19912;-87
2023/03/21 03:41:49;;;;;;;;;;;11.60;99.90;;;;;;6095243;23;19933;-87
2023/03/21 03:44:15;;;;;;;;;;;11.60;99.90;;;;;;6095174;23;19913;-87
2023/03/21 03:46:49;;;;;;;;;;;11.60;99.90;;;;;;6095526;23;20366;-87
2023/03/21 03:49:18;;;;;;;;;;;11.60;99.90;;;;;;6095335;23;19905;-87
2023/03/21 03:51:53;;;;;;;;;;;11.60;99.90;;;;;;6095048;23;20319;-87
2023/03/21 03:54:21;;;;;;;;;;;11.60;99.90;;;;;;6095211;23;19905;-87
2023/03/21 03:56:47;;;;;;;;;;;11.60;99.90;;;;;;6095503;23;19909;-87
2023/03/21 03:59:18;;;;;;;;;;;11.70;99.90;;;;;;6095264;23;19905;-87
2023/03/21 04:01:44;;;;;;;;;;;11.70;99.90;;;;;;6094984;23;19905;-87
2023/03/21 04:04:10;;;;;;;;;;;11.70;99.90;;;;;;6094967;23;19912;-87
2023/03/21 04:06:35;;;;;;;;;;;11.70;99.90;;;;;;6095158;23;20239;-87
2023/03/21 04:09:03;;;;;;;;;;;11.70;99.90;;;;;;6095166;23;19905;-87
2023/03/21 04:11:29;;;;;;;;;;;11.70;99.90;;;;;;6095403;23;19909;-86
2023/03/21 04:13:54;;;;;;;;;;;11.70;99.90;;;;;;6096388;23;19928;-87
2023/03/21 04:16:22;;;;;;;;;;;11.60;99.90;;;;;;6096382;23;19905;-87
2023/03/21 04:18:47;;;;;;;;;;;11.60;99.90;;;;;;6122452;23;20392;-87
2023/03/21 04:21:13;;;;;;;;;;;11.60;99.90;;;;;;6121878;23;19909;-87
2023/03/21 04:23:39;;;;;;;;;;;11.60;99.90;;;;;;6096413;23;19908;-87
2023/03/21 04:26:05;;;;;;;;;;;11.60;99.90;;;;;;6096309;23;19904;-86
2023/03/21 04:28:32;;;;;;;;;;;11.60;99.90;;;;;;6096767;23;20338;-87
2023/03/21 04:30:58;;;;;;;;;;;11.60;99.90;;;;;;6095808;23;19929;-87
2023/03/21 04:33:24;;;;;;;;;;;11.60;99.90;;;;;;6096182;23;19931;-87
2023/03/21 04:35:55;;;;;;;;;;;11.70;99.90;;;;;;6096351;23;19987;-87
2023/03/21 04:38:25;;;;;;;;;;;11.60;99.90;;;;;;6096439;23;19913;-87
2023/03/21 04:40:51;;;;;;;;;;;11.60;99.90;;;;;;6096317;23;20249;-86
2023/03/21 04:43:16;;;;;;;;;;;11.70;99.90;;;;;;6096339;23;19916;-87
2023/03/21 04:45:42;;;;;;;;;;;11.70;99.90;;;;;;6122121;23;19975;-87
2023/03/21 04:48:07;;;;;;;;;;;11.60;99.90;;;;;;6096691;23;19946;-87
2023/03/21 04:50:33;;;;;;;;;;;11.60;99.90;;;;;;6122476;23;19905;-88
2023/03/21 04:52:59;;;;;;;;;;;11.70;99.90;;;;;;6096128;23;19909;-87
2023/03/21 04:55:26;;;;;;;;;;;11.70;99.90;;;;;;6096087;23;19927;-87
2023/03/21 04:57:52;;;;;;;;;;;11.60;99.90;;;;;;6096330;23;19963;-87
2023/03/21 05:00:18;;;;;;;;;;;11.70;99.90;;;;;;6096142;23;20289;-87
2023/03/21 05:02:45;;;;;;;;;;;11.70;99.90;;;;;;6096041;23;19909;-87
2023/03/21 05:05:11;;;;;;;;;;;11.70;99.90;;;;;;6096204;23;19940;-87
2023/03/21 05:07:37;;;;;;;;;;;11.70;99.90;;;;;;6122059;23;19908;-87
2023/03/21 05:10:03;;;;;;;;;;;11.70;99.90;;;;;;6096107;23;19959;-87
2023/03/21 05:12:29;;;;;;;;;;;11.70;99.90;;;;;;6095798;23;20312;-87
2023/03/21 05:14:54;;;;;;;;;;;11.60;99.90;;;;;;6096041;23;19906;-87
2023/03/21 05:17:23;;;;;;;;;;;11.60;99.90;;;;;;6096438;23;19912;-87
2023/03/21 05:19:51;;;;;;;;;;;11.60;99.90;;;;;;6096570;23;19916;-87
2023/03/21 05:22:18;;;;;;;;;;;11.60;99.90;;;;;;6095678;23;19987;-86
2023/03/21 05:24:48;;;;;;;;;;;11.60;99.90;;;;;;6096342;23;19911;-87
2023/03/21 05:27:34;;;;;;;;;;;11.60;99.90;;;;;;6096424;23;19909;-87
2023/03/21 05:30:02;;;;;;;;;;;11.60;99.90;;;;;;6095894;23;20003;-87
2023/03/21 05:32:28;;;;;;;;;;;11.60;99.90;;;;;;6095907;23;19931;-87
2023/03/21 05:35:14;;;;;;;;;;;11.60;99.90;;;;;;6096309;23;20314;-86
2023/03/21 05:37:39;;;;;;;;;;;11.60;99.90;;;;;;6081132;23;19905;-87
2023/03/21 05:40:06;;;;;;;;;;;11.60;99.90;;;;;;6096222;23;20350;-87
2023/03/21 05:42:32;;;;;;;;;;;11.60;99.90;;;;;;6096140;23;19905;-87
2023/03/21 05:44:57;;;;;;;;;;;11.50;99.90;;;;;;6095804;23;19920;-86
2023/03/21 05:47:23;;;;;;;;;;;11.40;99.90;;;;;;6096760;23;19944;-87
2023/03/21 05:49:51;;;;;;;;;;;11.30;99.90;;;;;;6096449;23;19931;-86
2023/03/21 05:52:16;;;;;;;;;;;11.20;99.90;;;;;;6121529;23;19913;-87
2023/03/21 05:54:42;;;;;;;;;;;11.10;99.90;;;;;;6096060;23;19905;-87
2023/03/21 05:57:08;;;;;;;;;;;11.10;99.90;;;;;;6096177;23;20102;-87
2023/03/21 05:59:33;;;;;;;;;;;11.00;99.90;;;;;;6096205;23;19905;-87
2023/03/21 06:01:59;;;;;;;;;;;11.00;99.90;;;;;;6095687;23;19909;-87
2023/03/21 06:04:25;;;;;;;;;;;11.00;99.90;;;;;;6096190;23;19905;-87
2023/03/21 06:06:52;;;;;;;;;;;11.00;99.90;;;;;;6096688;23;19905;-87
2023/03/21 06:09:19;;;;;;;;;;;11.00;99.90;;;;;;6096244;23;20327;-87
2023/03/21 06:11:49;;;;;;;;;;;11.00;99.90;;;;;;6096025;23;19916;-87
2023/03/21 06:14:15;;;;;;;;;;;11.10;99.90;;;;;;6122341;23;19912;-87
2023/03/21 06:16:41;;;;;;;;;;;11.10;99.90;;;;;;6096902;23;19905;-87
2023/03/21 06:19:06;;;;;;;;;;;11.10;99.90;;;;;;6097372;23;20227;-87
2023/03/21 06:21:32;;;;;;;;;;;11.10;99.90;;;;;;6121934;23;19948;-87
2023/03/21 06:23:57;;;;;;;;;;;11.10;99.90;;;;;;6097293;23;20277;-87
2023/03/21 06:26:23;;;;;;;;;;;11.20;99.90;;;;;;6096923;23;19905;-87
2023/03/21 06:28:49;;;;;;;;;;;11.30;99.90;;;;;;6123168;23;19959;-87
2023/03/21 06:31:14;;;;;;;;;;;11.20;99.90;;;;;;6123035;23;19952;-87
2023/03/21 06:33:43;;;;;;;;;;;11.20;99.90;;;;;;6098304;23;19909;-87
2023/03/21 06:36:09;;;;;;;;;;;11.30;99.90;;;;;;6112136;23;19889;-87
2023/03/21 06:38:38;;;;;;;;;;;11.30;99.90;;;;;;6116452;23;19905;-87
2023/03/21 06:41:04;;;;;;;;;;;11.30;99.90;;;;;;6097743;23;19904;-87
2023/03/21 06:43:30;;;;;;;;;;;11.30;99.90;;;;;;6097371;23;19905;-87
2023/03/21 06:45:59;;;;;;;;;;;11.30;99.90;;;;;;6097765;23;20257;-87
2023/03/21 06:48:43;;;;;;;;;;;11.30;99.90;;;;;;6096579;23;20310;-87
2023/03/21 06:51:12;;;;;;;;;;;11.30;99.90;;;;;;6095816;23;19987;-87
2023/03/21 06:53:38;;;;;;;;;;;11.40;99.90;;;;;;6095978;23;20216;-87
2023/03/21 06:56:04;;;;;;;;;;;11.40;99.90;;;;;;6095772;23;20038;-87
2023/03/21 06:58:30;;;;;;;;;;;11.40;99.90;;;;;;6096105;23;19986;-87
2023/03/21 07:00:57;;;;;;;;;;;11.30;99.90;;;;;;6095794;23;19912;-87
2023/03/21 07:03:23;;;;;;;;;;;11.20;99.90;;;;;;6095981;23;19909;-88
2023/03/21 07:05:49;;;;;;;;;;;11.20;99.90;;;;;;6095761;23;19931;-87
2023/03/21 07:08:14;;;;;;;;;;;11.10;99.90;;;;;;6095663;23;19980;-87
2023/03/21 07:10:41;;;;;;;;;;;11.10;99.90;;;;;;6095983;23;19908;-87
2023/03/21 07:13:06;;;;;;;;;;;11.10;99.90;;;;;;6095578;23;19913;-87
2023/03/21 07:15:33;;;;;;;;;;;11.10;99.90;;;;;;6096039;23;20228;-87
2023/03/21 07:18:00;;;;;;;;;;;11.10;99.90;;;;;;6071253;23;21937;-87
2023/03/21 07:20:26;;;;;;;;;;;11.00;99.90;;;;;;6096043;23;20342;-87
2023/03/21 07:22:51;;;;;;;;;;;11.00;99.90;;;;;;6121453;23;19951;-87
2023/03/21 07:25:26;;;;;;;;;;;10.90;99.90;;;;;;6095694;23;19959;-88
2023/03/21 07:27:55;;;;;;;;;;;11.10;99.90;;;;;;6095766;23;19905;-88
2023/03/21 07:30:20;;;;;;;;;;;11.10;99.90;;;;;;6095634;23;19933;-88
2023/03/21 07:32:46;;;;;;;;;;;11.20;99.90;;;;;;6121248;23;19982;-87
2023/03/21 07:35:13;;;;;;;;;;;11.20;99.90;;;;;;6096075;23;19936;-87
2023/03/21 07:37:39;;;;;;;;;;;11.20;99.90;;;;;;6096115;23;19911;-87
2023/03/21 07:40:12;;;;;;;;;;;11.30;99.90;;;;;;6095585;23;19912;-87
2023/03/21 07:42:38;;;;;;;;;;;11.30;99.90;;;;;;6121481;23;19905;-87
2023/03/21 07:45:04;;;;;;;;;;;11.40;99.90;;;;;;6095690;23;19913;-87
2023/03/21 07:47:30;;;;;;;;;;;11.30;99.90;;;;;;6096189;23;19951;-88
2023/03/21 07:50:03;;;;;;;;;;;11.30;99.90;;;;;;6096192;23;19978;-87
2023/03/21 07:52:29;;;;;;;;;;;11.30;99.90;;;;;;6095958;23;19913;-87
2023/03/21 07:54:55;;;;;;;;;;;11.30;99.90;;;;;;6096466;23;19966;-87
2023/03/21 07:57:20;;;;;;;;;;;11.30;99.90;;;;;;6122723;23;19905;-87
2023/03/21 07:59:46;;;;;;;;;;;11.30;99.90;;;;;;6095250;23;19967;-87
2023/03/21 08:02:23;;;;;;;;;;;11.20;99.90;;;;;;6096425;23;19905;-87
2023/03/21 08:04:51;;;;;;;;;;;11.30;99.90;;;;;;6122561;23;19912;-87
2023/03/21 08:07:19;;;;;;;;;;;11.20;99.90;;;;;;6096087;23;19916;-88
2023/03/21 08:09:45;;;;;;;;;;;11.20;99.90;;;;;;6096603;23;20278;-87
2023/03/21 08:12:10;;;;;;;;;;;11.10;99.90;;;;;;6096309;23;19909;-87
2023/03/21 08:14:36;;;;;;;;;;;11.00;99.90;;;;;;6096630;23;20382;-87
2023/03/21 08:17:10;;;;;;;;;;;11.00;99.90;;;;;;6096665;23;19905;-87
2023/03/21 08:19:38;;;;;;;;;;;11.00;99.90;;;;;;6122597;23;20292;-87
2023/03/21 08:22:24;;;;;;;;;;;11.10;99.90;;;;;;6096413;23;20345;-87
2023/03/21 08:24:49;;;;;;;;;;;11.10;99.90;;;;;;6096763;23;19905;-87
2023/03/21 08:27:15;;;;;;;;;;;11.20;99.90;;;;;;6097054;23;19912;-87
2023/03/21 08:29:41;;;;;;;;;;;11.10;99.90;;;;;;6096818;23;19933;-87
2023/03/21 08:32:12;;;;;;;;;;;11.20;99.90;;;;;;6096272;23;20392;-87
2023/03/21 08:34:40;;;;;;;;;;;11.30;99.90;;;;;;6096095;23;19905;-87
2023/03/21 08:37:06;;;;;;;;;;;11.40;99.90;;;;;;6096898;23;20219;-87
2023/03/21 08:42:17;;;;;;;;;;;11.40;99.90;;;;;;6121758;23;19944;-87
2023/03/21 08:44:47;;;;;;;;;;;11.50;99.90;;;;;;6096771;22;19921;-81
2023/03/21 08:47:26;;;;;;;;;;;11.60;99.90;;;;;;6120670;23;19984;-81
2023/03/21 08:50:00;;;;;;;;;;;11.60;99.90;;;;;;6096519;23;19929;-81
2023/03/21 08:52:29;;;;;;;;;;;11.50;99.90;;;;;;6121958;23;19913;-81
2023/03/21 08:55:01;;;;;;;;;;;11.40;99.90;;;;;;6096268;23;19905;-81
2023/03/21 08:57:27;;;;;;;;;;;11.40;99.90;;;;;;6096005;23;19906;-81
2023/03/21 08:59:57;;;;;;;;;;;11.40;99.90;;;;;;6096318;23;19905;-82
2023/03/21 09:02:25;;;;;;;;;;;11.40;99.90;;;;;;6095846;23;19909;-82
2023/03/21 09:04:57;;;;;;;;;;;11.50;99.90;;;;;;6122204;23;19905;-81
2023/03/21 09:07:37;;;;;;;;;;;11.50;99.90;;;;;;6122322;23;19905;-81
2023/03/21 09:10:13;;;;;;;;;;;11.60;99.90;;;;;;6096371;23;19932;-81
2023/03/21 09:12:40;;;;;;;;;;;11.50;99.90;;;;;;6095844;23;19959;-81
2023/03/21 09:15:12;;;;;;;;;;;11.50;99.90;;;;;;6096324;23;19909;-81
2023/03/21 09:17:41;;;;;;;;;;;11.50;99.90;;;;;;6120637;23;19920;-82
2023/03/21 09:20:17;;;;;;;;;;;11.60;99.90;;;;;;6092057;23;20282;-82
2023/03/21 09:22:46;;;;;;;;;;;11.80;99.90;;;;;;6066382;23;19905;-82
2023/03/21 09:25:12;;;;;;;;;;;12.00;99.90;;;;;;6095125;23;19905;-83
2023/03/21 09:27:56;;;;;;;;;;;12.30;99.90;;;;;;6096268;23;20302;-83
2023/03/21 09:37:26;;;;;;;;;;;12.90;99.90;;;;;;6034778;23;19992;-82
2023/03/21 09:43:25;;;;;;;;;;;12.70;99.90;;;;;;6093663;23;19905;-82
2023/03/21 09:46:27;;;;;;;;;;;12.60;99.90;;;;;;6066889;23;19920;-81
2023/03/21 09:58:23;;;;;;;;;;;12.40;99.90;;;;;;6122790;23;20358;-81
2023/03/21 10:04:28;;;;;;;;;;;12.10;99.90;;;;;;6120581;23;20031;-80
2023/03/21 10:06:56;;;;;;;;;;;12.00;99.90;;;;;;6223991;23;20246;-81
2023/03/21 10:09:23;;;;;;;;;;;11.90;99.90;;;;;;6225373;23;19913;-81
2023/03/21 10:11:57;;;;;;;;;;;11.90;99.90;;;;;;6220559;23;19966;-82
2023/03/21 10:14:33;;;;;;;;;;;11.90;99.90;;;;;;6223616;22;19909;-81
2023/03/21 10:17:32;;;;;;;;;;;;;;;;;;;;;
2023/03/21 10:20:35;;;;;;;;;;;12.20;99.90;;;;;;6122362;23;20240;-80
2023/03/21 10:23:02;;;;;;;;;;;12.30;99.90;;;;;;6122022;23;19905;-81
2023/03/21 10:25:41;;;;;;;;;;;12.20;99.90;;;;;;6122605;23;19984;-81
2023/03/21 10:28:25;;;;;;;;;;;12.30;99.90;;;;;;6122433;23;19912;-80
2023/03/21 10:30:52;;;;;;;;;;;12.30;99.90;;;;;;6224081;23;19909;-82
2023/03/21 10:33:24;;;;;;;;;;;12.30;99.90;;;;;;6121298;23;19915;-81
2023/03/21 10:35:54;;;;;;;;;;;12.30;99.90;;;;;;6121711;23;19911;-81
2023/03/21 10:39:03;;;;;;;;;;;12.20;99.90;;;;;;6224204;23;19909;-80
2023/03/21 10:41:53;;;;;;;;;;;12.20;99.90;;;;;;6121921;23;19905;-80
2023/03/21 10:47:50;;;;;;;;;;;12.30;99.90;;;;;;6123105;23;19966;-80
2023/03/21 10:50:16;;;;;;;;;;;12.40;99.90;;;;;;6223611;23;19905;-80
2023/03/21 10:52:47;;;;;;;;;;;12.30;99.90;;;;;;6223212;23;20161;-80
2023/03/21 10:55:23;;;;;;;;;;;12.30;99.90;;;;;;6249975;22;19912;-80
2023/03/21 10:57:52;;;;;;;;;;;12.20;99.90;;;;;;6223604;23;19909;-80
2023/03/21 11:00:23;;;;;;;;;;;12.20;99.90;;;;;;6122149;23;20349;-81
2023/03/21 11:02:50;;;;;;;;;;;12.20;99.90;;;;;;6223186;23;19912;-80
2023/03/21 11:05:24;;;;;;;;;;;12.30;99.90;;;;;;6223592;22;19940;-80
2023/03/21 11:07:57;;;;;;;;;;;12.40;99.90;;;;;;6122195;23;19913;-80
2023/03/21 11:10:27;;;;;;;;;;;12.50;99.90;;;;;;6223424;23;20314;-80
2023/03/21 11:12:55;;;;;;;;;;;12.60;99.90;;;;;;6224526;23;20238;-80
2023/03/21 11:15:26;;;;;;;;;;;12.70;99.90;;;;;;6239987;22;19952;-80
2023/03/21 11:17:51;;;;;;;;;;;12.80;99.90;;;;;;6139142;23;19905;-80
2023/03/21 11:20:17;;;;;;;;;;;13.00;99.90;;;;;;6136753;23;19927;-80
2023/03/21 11:22:43;;;;;;;;;;;13.00;99.90;;;;;;6132104;23;19905;-80
2023/03/21 11:25:17;;;;;;;;;;;13.00;99.90;;;;;;6259098;22;19984;-81
2023/03/21 11:27:50;;;;;;;;;;;13.00;99.90;;;;;;6227298;23;20239;-81
2023/03/21 11:30:19;;;;;;;;;;;13.00;99.90;;;;;;6226410;23;19912;-81
2023/03/21 11:32:45;;;;;;;;;;;13.00;99.90;;;;;;6226661;23;19913;-81
2023/03/21 11:35:22;;;;;;;;;;;12.90;99.90;;;;;;6227326;22;19928;-81
2023/03/21 11:37:52;;;;;;;;;;;12.70;99.90;;;;;;6226970;23;19976;-81
2023/03/21 11:40:22;;;;;;;;;;;12.70;99.90;;;;;;6227582;23;20131;-81
2023/03/21 11:42:50;;;;;;;;;;;12.70;99.90;;;;;;6226097;23;19905;-81
2023/03/21 11:45:21;;;;;;;;;;;12.60;99.90;;;;;;6226592;22;19912;-81
2023/03/21 11:47:48;;;;;;;;;;;12.50;99.90;;;;;;6124863;23;19963;-81
2023/03/21 11:50:18;;;;;;;;;;;12.40;99.90;;;;;;6226088;23;19912;-81
2023/03/21 11:52:57;;;;;;;;;;;12.40;99.90;;;;;;6226142;23;19932;-81
2023/03/21 11:55:25;;;;;;;;;;;12.30;99.90;;;;;;6124948;23;19905;-81
2023/03/21 11:57:51;;;;;;;;;;;12.40;99.90;;;;;;6226345;23;20307;-81
2023/03/21 12:00:21;;;;;;;;;;;12.30;99.90;;;;;;6125153;23;20028;-81
2023/03/21 12:02:50;;;;;;;;;;;12.30;99.90;;;;;;6124832;23;19905;-81
2023/03/21 12:05:18;;;;;;;;;;;12.10;99.90;;;;;;6227070;22;19905;-80
2023/03/21 12:07:55;;;;;;;;;;;12.00;99.90;;;;;;6226460;23;19916;-81
2023/03/21 12:10:35;;;;;;;;;;;12.00;99.90;;;;;;6225819;23;19905;-81
2023/03/21 12:13:07;;;;;;;;;;;11.90;99.90;;;;;;6225762;23;20277;-81
2023/03/21 12:15:32;;;;;;;;;;;11.80;99.90;;;;;;6226066;22;19992;-81
2023/03/21 12:17:58;;;;;;;;;;;11.80;99.90;;;;;;6225957;23;19905;-81
2023/03/21 12:20:28;;;;;;;;;;;11.70;99.90;;;;;;6226679;23;19905;-81
2023/03/21 12:23:04;;;;;;;;;;;11.70;99.90;;;;;;6225924;23;19912;-81
2023/03/21 12:25:31;;;;;;;;;;;11.80;99.90;;;;;;6225941;22;19912;-81
2023/03/21 12:28:21;;;;;;;;;;;11.70;99.90;;;;;;6119051;23;20249;-81
2023/03/21 12:31:05;;;;;;;;;;;11.80;99.90;;;;;;6126154;23;19909;-82
2023/03/21 12:33:39;;;;;;;;;;;11.90;99.90;;;;;;6124991;23;20223;-81
2023/03/21 12:36:09;;;;;;;;;;;12.10;99.90;;;;;;6227620;22;20170;-81
2023/03/21 12:38:35;;;;;;;;;;;12.20;99.90;;;;;;6124927;23;19905;-82
2023/03/21 12:41:17;;;;;;;;;;;12.30;99.90;;;;;;6226960;23;19939;-81
2023/03/21 12:44:09;;;;;;;;;;;12.40;99.90;;;;;;6124854;23;19909;-81
2023/03/21 12:46:35;;;;;;;;;;;12.50;99.90;;;;;;6127192;22;19912;-81
2023/03/21 12:49:04;;;;;;;;;;;12.70;99.90;;;;;;6226293;23;19905;-81
2023/03/21 12:51:35;;;;;;;;;;;12.90;99.90;;;;;;6225452;23;19905;-82
2023/03/21 12:54:19;;;;;;;;;;;13.00;99.90;;;;;;6226802;23;19905;-82
2023/03/21 12:56:55;;;;;;;;;;;13.10;99.90;;;;;;6125086;23;20249;-82
2023/03/21 12:59:39;;;;;;;;;;;13.40;99.90;;;;;;6123482;23;19912;-82
2023/03/21 13:02:14;;;;;;;;;;;13.50;99.90;;;;;;6123127;23;19999;-82
2023/03/21 13:04:40;;;;;;;;;;;13.70;99.90;;;;;;6124572;23;19936;-81
2023/03/21 13:07:07;;;;;;;;;;;13.70;99.90;;;;;;6225486;23;19905;-85
2023/03/21 13:09:34;;;;;;;;;;;13.60;99.90;;;;;;6227040;23;20413;-82
2023/03/21 13:12:05;;;;;;;;;;;13.80;99.90;;;;;;6226308;23;19905;-82
2023/03/21 13:14:35;;;;;;;;;;;14.00;99.90;;;;;;6124482;23;19912;-83
2023/03/21 13:17:04;;;;;;;;;;;14.10;99.90;;;;;;6225650;23;20231;-82
2023/03/21 13:19:37;;;;;;;;;;;14.00;99.90;;;;;;6124541;23;19958;-81
2023/03/21 13:22:12;;;;;;;;;;;14.20;99.90;;;;;;6225405;23;19933;-81
2023/03/21 13:24:46;;;;;;;;;;;14.00;99.90;;;;;;6124879;23;19905;-82
2023/03/21 13:27:19;;;;;;;;;;;13.90;99.90;;;;;;6123929;23;19991;-82
2023/03/21 13:30:11;;;;;;;;;;;13.80;99.90;;;;;;6226059;23;19905;-81
2023/03/21 13:32:37;;;;;;;;;;;14.00;99.90;;;;;;6180233;23;19906;-82
2023/03/21 13:35:19;;;;;;;;;;;14.40;99.90;;;;;;6226650;22;19936;-82
2023/03/21 13:38:01;;;;;;;;;;;14.50;99.90;;;;;;6226561;23;19972;-82
2023/03/21 13:40:42;;;;;;;;;;;14.90;99.90;;;;;;6227827;23;19905;-81
2023/03/21 13:43:26;;;;;;;;;;;15.20;99.90;;;;;;6123569;23;19913;-79
2023/03/21 13:45:52;;;;;;;;;;;15.60;99.90;;;;;;6227896;22;19916;-81
2023/03/21 13:48:26;;;;;;;;;;;16.10;99.90;;;;;;6227865;23;19976;-80
2023/03/21 13:50:53;;;;;;;;;;;16.20;99.90;;;;;;6226117;23;19913;-80
2023/03/21 13:53:22;;;;;;;;;;;16.10;99.90;;;;;;6225907;23;20028;-81
2023/03/21 13:55:57;;;;;;;;;;;15.70;99.90;;;;;;6124878;23;19905;-81
2023/03/21 13:58:30;;;;;;;;;;;15.50;99.90;;;;;;6252148;22;19917;-80
2023/03/21 14:01:05;;;;;;;;;;;15.50;99.90;;;;;;6225713;23;19905;-80
2023/03/21 14:03:33;;;;;;;;;;;15.50;99.90;;;;;;6226520;23;19909;-81
2023/03/21 14:05:58;;;;;;;;;;;15.50;99.90;;;;;;6125264;23;20038;-80
2023/03/21 14:08:26;;;;;;;;;;;15.50;99.90;;;;;;6226271;23;19905;-81
2023/03/21 14:10:54;;;;;;;;;;;15.50;99.90;;;;;;6225488;23;20231;-80
2023/03/21 14:13:21;;;;;;;;;;;15.60;99.90;;;;;;6124206;23;19984;-80
2023/03/21 14:15:52;;;;;;;;;;;15.40;99.90;;;;;;6124688;22;20323;-82
2023/03/21 14:18:19;;;;;;;;;;;15.20;99.90;;;;;;6124988;23;19905;-81
2023/03/21 14:20:44;;;;;;;;;;;15.00;99.90;;;;;;6224745;23;19905;-82
2023/03/21 14:23:14;;;;;;;;;;;14.90;99.90;;;;;;6220717;23;19916;-81
2023/03/21 14:25:42;;;;;;;;;;;14.90;99.90;;;;;;6223612;22;19980;-82
2023/03/21 14:28:14;;;;;;;;;;;14.80;99.90;;;;;;6222229;23;20358;-81
2023/03/21 14:30:41;;;;;;;;;;;14.80;99.90;;;;;;6121290;23;19923;-81
2023/03/21 14:33:15;;;;;;;;;;;14.90;99.90;;;;;;6121504;23;19905;-80
2023/03/21 14:35:41;;;;;;;;;;;14.90;99.90;;;;;;6123771;23;19984;-81
2023/03/21 14:38:08;;;;;;;;;;;15.10;99.90;;;;;;6224296;23;19912;-81
2023/03/21 14:40:34;;;;;;;;;;;15.30;99.90;;;;;;6224154;23;20289;-81
2023/03/21 14:43:04;;;;;;;;;;;15.50;99.90;;;;;;6223360;23;19955;-81
2023/03/21 14:45:29;;;;;;;;;;;15.60;99.90;;;;;;6174671;22;19921;-82
2023/03/21 14:48:06;;;;;;;;;;;15.60;99.90;;;;;;6092104;23;19941;-81
2023/03/21 14:50:39;;;;;;;;;;;15.70;99.90;;;;;;6091905;23;19988;-83
2023/03/21 14:53:06;;;;;;;;;;;16.00;99.90;;;;;;6114213;23;20379;-82
2023/03/21 14:55:31;;;;;;;;;;;16.60;99.90;;;;;;6091940;23;19932;-83
2023/03/21 14:57:57;;;;;;;;;;;16.80;99.90;;;;;;6091378;23;20334;-82
2023/03/21 15:00:25;;;;;;;;;;;17.20;99.90;;;;;;6090745;23;20289;-83
2023/03/21 15:02:51;;;;;;;;;;;18.10;99.90;;;;;;6089139;23;20485;-82